SHMÚ vydal hydrologické výstrahy na   Povodeň Display warnings

TAF

Aerodrome Forecast TAF

TAF description (Slovak)

16.12.2017 - 17:00 UTC

TAF AMD LZPP 162010Z 1620/1703 CNL=

16.12.2017 - 20:00 UTC

TAF LZSL 162000Z 1621/1706 03002KT CAVOK
    BECMG 1700/1702 4500 BR NSC
    TEMPO 1702/1706 1200 BCFG SCT002=
TAF LZZI 162000Z 1621/1706 VRB02KT 2500 BR BKN045
    BECMG 1621/1623 0600 FZFG BKN004
    TEMPO 1621/1700 1000 BCFG SCT004 SCT046
    BECMG 1700/1702 0300 FZFG OVC002
    TEMPO 1700/1706 0100 FZFG VV001=

16.12.2017 - 17:00 UTC

TAF LZIB 161700Z 1618/1718 29005KT CAVOK
    BECMG 1708/1710 33010KT 9999 BKN040=
TAF LZKZ 161700Z 1618/1718 VRB02KT 9999 SCT030 BKN060
    BECMG 1618/1620 4000 BR BKN023 OVC040
    PROB40 1622/1708 0800 FZFG BKN005 BKN030
    BECMG 1708/1710 35005KT 5000 BR SCT040
    BECMG 1713/1715 01010KT CAVOK=
TAF LZTT 161700Z 1618/1718 28010KT 9999 SCT012
    BECMG 1620/1622 VRB02KT 4000 BR
    PROB40 TEMPO 1623/1708 0600 FZFG BKN002
    BECMG 1709/1711 9999 SCT040=

16.12.2017 - 17:00 UTC

TAF LZSL 161700Z 1618/1703 33004KT 9999 SCT040=
TAF LZPP 161700Z 1618/1703 32004KT CAVOK
    BECMG 1620/1622 VRB02KT 4000 BR SCT040=
TAF LZZI 161700Z 1618/1703 VRB02KT 2500 BR BKN045
    BECMG 1618/1620 1200 BCFG SCT005 SCT030
    BECMG 1620/1622 0600 FZFG BKN002=

16.12.2017 - 14:00 UTC

TAF LZSL 161400Z 1615/1700 33006KT 9999 SCT040=
TAF LZPP 161400Z 1615/1700 34004KT 9999 SCT040 BKN060=
TAF LZZI 161400Z 1615/1700 VRB02KT 5000 BR BKN045
    BECMG 1616/1618 1500 BCFG SCT005 SCT030
    BECMG 1618/1620 0600 FZFG BKN002=

16.12.2017 - 11:00 UTC

TAF LZIB 161100Z 1612/1712 31008KT 9999 SCT040 BKN060
    BECMG 1616/1618 29004KT CAVOK
    BECMG 1708/1710 33010KT=
TAF LZKZ 161100Z 1612/1712 02010KT 9999 SCT030 BKN060
    TEMPO 1612/1616 5000 -RASN BKN023 OVC040
    TEMPO 1616/1700 VRB02KT 2000 -SN SCT010 BKN020
    TEMPO 1700/1708 0800 FZFG BKN005 BKN030=
TAF LZTT 161100Z 1612/1712 04006KT 9999 SCT023 BKN060
    TEMPO 1612/1614 26007KT 5000 -SN BKN020
    BECMG 1616/1618 VRB02KT 4000 BR
    TEMPO 1620/1708 0600 FZFG BKN002=

16.12.2017 - 11:00 UTC

TAF LZSL 161100Z 1612/1621 23004KT 9999 SCT040
    PROB40 TEMPO 1612/1615 34005KT 4000 -SN BR BKN010 OVC030=
TAF LZPP 161100Z 1612/1621 34005KT 9999 SCT040 BKN060=
TAF LZZI 161100Z 1612/1621 VRB02KT 5000 BR BKN040
    PROB40 TEMPO 1612/1615 1500 -SN OVC030=

16.12.2017 - 08:00 UTC

TAF LZSL 160800Z 1609/1618 VRB02KT 6000 SCT040
    TEMPO 1609/1613 34005KT 1200 -SN BR BKN010 OVC030=
TAF LZPP 160800Z 1609/1618 34005KT 9999 SCT040 BKN100=
TAF LZZI 160800Z 1609/1618 VRB02KT 9999 BKN040
    PROB40 TEMPO 1609/1612 4000 -SN OVC030=

16.12.2017 - 05:00 UTC

TAF LZSL 160500Z 1606/1615 VRB02KT 0200 FG OVC002
    BECMG 1606/1608 34004KT 4000 BR SCT005 OVC020
    TEMPO 1607/1613 1200 -SN BR BKN008=
TAF LZPP 160500Z 1606/1615 34005KT 9999 SCT030 BKN100=
TAF LZZI 160500Z 1606/1615 VRB02KT 0200 FG OVC002
    BECMG 1607/1609 9999 BKN030=

16.12.2017 - 05:00 UTC

TAF LZIB 160500Z 1606/1706 31008KT 9999 FEW040 BKN100
    BECMG 1616/1618 29004KT CAVOK=
TAF LZKZ 160500Z 1606/1706 02012KT 9999 -RASN SCT004 BKN020
    TEMPO 1606/1612 01020G30KT 0400 -SNRA BKN004
    BECMG 1612/1614 VRB02KT 4000 BR
    TEMPO 1618/1706 0400 FZFG OVC002=
TAF LZTT 160500Z 1606/1706 04006KT 9999 -SN BKN020
    TEMPO 1606/1609 0500 SN FZFG OVC004
    BECMG 1612/1614 26007KT NSW
    BECMG 1616/1618 VRB02KT 4000 BR
    TEMPO 1620/1706 0600 FZFG BKN002=

16.12.2017 - 02:00 UTC

TAF LZSL 160200Z 1603/1612 VRB02KT 0200 FG OVC002
    BECMG 1603/1605 34004KT 4000 BR BKN005 OVC020
    TEMPO 1603/1612 1200 -SNRA BR=
TAF LZZI 160200Z 1603/1612 VRB02KT 0200 FG OVC002
    BECMG 1604/1606 5000 BR SCT003 BKN018=

skok na menu ↑


skok na začiatok stránky ↑